Ahlsell — OYZH — position and weather

sailwx.info

Track history (hours):
 
Tides and Currents Weather Stations Pressure Air Temp Water Temp Dewpoint Dewpoint Depression Visibility Wind Speed Wind Dir Waves Ship Positions

Ahlsell

Last reported at 2014-Oct-25 01:33 UTC. Time now 2014-Oct-25 01:38 UTC.
Position N 55°06' E 014°42'.

Length 40 m; draft 4 m.

Type: Dredging. MMSI: 219000852.

Date/timePositionNaut miles runAvg speedWind from/ knotsBaromVisibWave heightAir tempDewpointWater temp
2014-Oct-25 01:33N 55°06' E 014°42'0 0.0
2014-Oct-25 00:33N 55°06' E 014°42'0 0.0
2014-Oct-24 23:34N 55°06' E 014°42'0 0.0
2014-Oct-24 22:34N 55°06' E 014°42'0 0.0
2014-Oct-24 21:33N 55°06' E 014°42'0 0.0
2014-Oct-24 20:33N 55°06' E 014°42'0 0.0
2014-Oct-24 19:33N 55°06' E 014°42'0 0.0
2014-Oct-24 18:33N 55°06' E 014°42'0 0.0
2014-Oct-24 17:33N 55°06' E 014°42'0 0.0
2014-Oct-24 16:33N 55°06' E 014°42'0 0.0
2014-Oct-24 15:33N 55°06' E 014°42'0 0.0
2014-Oct-24 14:33N 55°06' E 014°42'0 0.0
2014-Oct-24 13:33N 55°06' E 014°42'0 0.0
2014-Oct-24 12:33N 55°06' E 014°42'0 0.0
2014-Oct-24 11:34N 55°06' E 014°42'0 0.0
2014-Oct-24 10:33N 55°06' E 014°42'0 0.0
2014-Oct-24 09:33N 55°06' E 014°42'0 0.4
2014-Oct-24 08:34N 55°06' E 014°41'0 0.0
2014-Oct-24 07:34N 55°06' E 014°41'0 0.0
2014-Oct-24 06:34N 55°06' E 014°41'0 0.0
2014-Oct-24 05:34N 55°06' E 014°41'6 6.1
2014-Oct-24 04:33N 55°01' E 014°36'0 0.5
2014-Oct-24 03:33N 55°00' E 014°35'4 4.1
2014-Oct-24 02:33N 55°04' E 014°39'3 2.5
2014-Oct-24 01:34N 55°06' E 014°41'0 0.0
2014-Oct-24 00:33N 55°06' E 014°41'3 2.6
2014-Oct-23 23:34N 55°04' E 014°39'4 3.7
2014-Oct-23 22:33N 55°01' E 014°35'0 0.0
2014-Oct-23 21:34N 55°01' E 014°35'6 6.3
2014-Oct-23 20:33N 55°06' E 014°41'0 0.0
2014-Oct-23 19:34N 55°06' E 014°41'1 1.5
2014-Oct-23 18:33N 55°05' E 014°40'7 6.7
2014-Oct-23 17:34N 54°58' E 014°36'6 5.3
2014-Oct-23 16:28N 54°53' E 014°33'0 0.0
2014-Oct-23 15:30N 54°53' E 014°33'0 0.0
2014-Oct-23 14:33N 54°53' E 014°33'1 0.8
2014-Oct-23 13:33N 54°52' E 014°32'0 0.2
2014-Oct-23 12:28N 54°52' E 014°32'0 0.1
2014-Oct-23 11:32N 54°52' E 014°32'4 3.9
2014-Oct-23 10:34N 54°56' E 014°34'8 8.2
2014-Oct-23 09:34N 55°03' E 014°39'3 2.8
2014-Oct-23 08:33N 55°06' E 014°41'0 0.0
2014-Oct-23 07:34N 55°06' E 014°41'3 3.4
2014-Oct-23 06:34N 55°02' E 014°41'6 6.3
2014-Oct-23 05:33N 54°56' E 014°44'2 2.0
2014-Oct-23 04:30N 54°54' E 014°46'4 4.1
2014-Oct-23 03:33N 54°58' E 014°43'8 7.6
2014-Oct-23 02:34N 55°06' E 014°41'1 0.5
2014-Oct-23 01:33N 55°06' E 014°41'0 0.0
2014-Oct-23 00:34N 55°06' E 014°41'5 5.5
2014-Oct-22 23:34N 55°00' E 014°42'6 6.0
2014-Oct-22 22:34N 54°55' E 014°45'0 0.5
2014-Oct-22 21:33N 54°54' E 014°45'4 4.2
2014-Oct-22 20:33N 54°58' E 014°43'7 7.4
2014-Oct-22 19:34N 55°06' E 014°41'0 0.5
2014-Oct-22 18:34N 55°06' E 014°41'1 0.8
2014-Oct-22 17:34N 55°05' E 014°40'7 6.8
2014-Oct-22 16:34N 54°59' E 014°43'5 4.5
2014-Oct-22 15:33N 54°55' E 014°46'0 0.1
2014-Oct-22 14:32N 54°55' E 014°46'6 6.7
2014-Oct-22 13:34N 55°01' E 014°42'5 5.3
2014-Oct-22 12:33N 55°06' E 014°41'0 0.0
2014-Oct-22 11:33N 55°06' E 014°41'1 1.3
2014-Oct-22 10:33N 55°05' E 014°41'7 7.0
2014-Oct-22 09:34N 54°58' E 014°44'4 4.0
2014-Oct-22 08:33N 54°54' E 014°46'4 4.3
2014-Oct-22 07:34N 54°58' E 014°45'7 7.3
2014-Oct-22 06:34N 55°05' E 014°41'1 0.7
2014-Oct-22 05:33N 55°06' E 014°41'0 0.4
2014-Oct-22 04:33N 55°06' E 014°41'4 3.6
2014-Oct-22 03:33N 55°02' E 014°41'0 0.0
2014-Oct-22 02:34N 55°02' E 014°41'0 0.0
2014-Oct-22 01:34N 55°02' E 014°41'0 0.0
2014-Oct-22 00:33N 55°02' E 014°41'0 0.0
2014-Oct-21 23:34N 55°02' E 014°41'3 3.2
2014-Oct-21 22:33N 55°05' E 014°41'1 0.8
2014-Oct-21 21:33N 55°06' E 014°41'0 0.0
2014-Oct-21 20:33N 55°06' E 014°41'4 3.9
2014-Oct-21 19:34N 55°02' E 014°41'0 0.0
2014-Oct-21 18:33N 55°02' E 014°41'0 0.0
2014-Oct-21 17:34N 55°02' E 014°41'0 0.0
2014-Oct-21 16:34N 55°02' E 014°41'3 3.1
2014-Oct-21 15:33N 55°05' E 014°41'1 0.9
2014-Oct-21 14:33N 55°06' E 014°41'1 0.5
2014-Oct-21 13:34N 55°06' E 014°41'3 3.5
2014-Oct-21 12:33N 55°02' E 014°41'0 0.0
2014-Oct-21 11:33N 55°02' E 014°41'0 0.0
2014-Oct-21 10:33N 55°02' E 014°41'4 3.6
2014-Oct-21 09:33N 55°06' E 014°41'0 0.4
2014-Oct-21 08:33N 55°06' E 014°41'0 0.0
2014-Oct-21 07:33N 55°06' E 014°41'0 0.0
2014-Oct-21 06:33N 55°06' E 014°41'0 0.0
2014-Oct-21 05:33N 55°06' E 014°41'0 0.0
2014-Oct-21 04:34N 55°06' E 014°41'0 0.0
2014-Oct-21 03:33N 55°06' E 014°41'0 0.0
2014-Oct-21 02:34N 55°06' E 014°41'0 0.0
2014-Oct-21 01:34N 55°06' E 014°41'0 0.0
2014-Oct-21 00:34N 55°06' E 014°41'0 0.0
2014-Oct-20 23:33N 55°06' E 014°41'0 0.0
2014-Oct-20 22:33N 55°06' E 014°41'0 0.0
2014-Oct-20 21:33N 55°06' E 014°41'0 0.0
2014-Oct-20 20:33N 55°06' E 014°41'0 0.0
2014-Oct-20 19:33N 55°06' E 014°41'0 0.0
2014-Oct-20 18:33N 55°06' E 014°41'0 0.0
2014-Oct-20 17:33N 55°06' E 014°41'0 0.0
2014-Oct-20 16:34N 55°06' E 014°41'0 0.0
2014-Oct-20 15:33N 55°06' E 014°41'0 0.0
2014-Oct-20 14:34N 55°06' E 014°41'0 0.0
2014-Oct-20 13:33N 55°06' E 014°41'0 0.0
2014-Oct-20 12:33N 55°06' E 014°41'0 0.0
2014-Oct-20 11:33N 55°06' E 014°41'0 0.0
2014-Oct-20 10:34N 55°06' E 014°41'0 0.0
2014-Oct-20 09:34N 55°06' E 014°41'0 0.0
2014-Oct-20 08:33N 55°06' E 014°41'0 0.0
2014-Oct-20 07:33N 55°06' E 014°41'0 0.0
2014-Oct-20 06:34N 55°06' E 014°41'0 0.0
2014-Oct-20 05:34N 55°06' E 014°41'0 0.0
2014-Oct-20 04:33N 55°06' E 014°41'0 0.0
2014-Oct-20 03:34N 55°06' E 014°41'0 0.0
2014-Oct-20 02:34N 55°06' E 014°41'0 0.0
2014-Oct-20 01:34N 55°06' E 014°41'0 0.0
2014-Oct-20 00:33N 55°06' E 014°41'0 0.0
2014-Oct-19 23:33N 55°06' E 014°41'0 0.0
2014-Oct-19 22:33N 55°06' E 014°41'0 0.0
2014-Oct-19 21:34N 55°06' E 014°41'0 0.0
2014-Oct-19 20:34N 55°06' E 014°41'0 0.0
2014-Oct-19 19:33N 55°06' E 014°41'0 0.0
2014-Oct-19 18:34N 55°06' E 014°41'0 0.0
2014-Oct-19 17:33N 55°06' E 014°41'0 0.0
2014-Oct-19 16:34N 55°06' E 014°41'0 0.0
2014-Oct-19 15:34N 55°06' E 014°41'0 0.0
2014-Oct-19 14:34N 55°06' E 014°41'0 0.0
2014-Oct-19 13:33N 55°06' E 014°41'0 0.0
2014-Oct-19 12:33N 55°06' E 014°41'0 0.0
2014-Oct-19 11:33N 55°06' E 014°41'0 0.0
2014-Oct-19 10:33N 55°06' E 014°41'0 0.0
2014-Oct-19 09:34N 55°06' E 014°41'0 0.0
2014-Oct-19 08:33N 55°06' E 014°41'0 0.0
2014-Oct-19 07:34N 55°06' E 014°41'0 0.0
2014-Oct-19 06:33N 55°06' E 014°41'0 0.0
2014-Oct-19 05:34N 55°06' E 014°41'0 0.0
2014-Oct-19 04:33N 55°06' E 014°41'0 0.0
2014-Oct-19 03:34N 55°06' E 014°41'0 0.0
2014-Oct-19 02:33N 55°06' E 014°41'0 0.0
2014-Oct-19 01:34N 55°06' E 014°41'0 0.0
2014-Oct-19 00:33N 55°06' E 014°41'0 0.0
2014-Oct-18 23:34N 55°06' E 014°41'0 0.0
2014-Oct-18 22:34N 55°06' E 014°41'0 0.0
2014-Oct-18 21:34N 55°06' E 014°41'0 0.0
2014-Oct-18 20:34N 55°06' E 014°41'0 0.0
2014-Oct-18 19:33N 55°06' E 014°41'0 0.0
2014-Oct-18 18:34N 55°06' E 014°41'0 0.0
2014-Oct-18 17:33N 55°06' E 014°41'0 0.0
2014-Oct-18 16:33N 55°06' E 014°41'0 0.0
2014-Oct-18 15:34N 55°06' E 014°41'0 0.0
2014-Oct-18 14:33N 55°06' E 014°41'0 0.0
2014-Oct-18 13:33N 55°06' E 014°41'0 0.0
2014-Oct-18 12:33N 55°06' E 014°41'0 0.0
2014-Oct-18 11:33N 55°06' E 014°41'0 0.0
2014-Oct-18 10:33N 55°06' E 014°41'0 0.0
2014-Oct-18 09:33N 55°06' E 014°41'0 0.0
2014-Oct-18 08:33N 55°06' E 014°41'0 0.0
2014-Oct-18 07:34N 55°06' E 014°41'0 0.0
2014-Oct-18 06:33N 55°06' E 014°41'0 0.0
2014-Oct-18 05:33N 55°06' E 014°41'0 0.0
2014-Oct-18 04:33N 55°06' E 014°41'0 0.0
2014-Oct-18 03:33N 55°06' E 014°41'0 0.0
2014-Oct-18 02:34N 55°06' E 014°41'0 0.0
2014-Oct-18 01:33N 55°06' E 014°41'0 0.0
2014-Oct-18 00:34N 55°06' E 014°41'0 0.0
2014-Oct-17 23:34N 55°06' E 014°41'0 0.0
2014-Oct-17 22:33N 55°06' E 014°41'0 0.0
2014-Oct-17 21:33N 55°06' E 014°41'0 0.0
2014-Oct-17 20:33N 55°06' E 014°41'0 0.0
2014-Oct-17 19:33N 55°06' E 014°41'0 0.0
2014-Oct-17 18:34N 55°06' E 014°41'0 0.0
2014-Oct-17 17:33N 55°06' E 014°41'0 0.0
2014-Oct-17 16:34N 55°06' E 014°41'0 0.0
2014-Oct-17 15:33N 55°06' E 014°41'0 0.0
2014-Oct-17 14:34N 55°06' E 014°41'0 0.0
2014-Oct-17 13:33N 55°06' E 014°41'0 0.0
2014-Oct-17 12:33N 55°06' E 014°41'0 0.0
2014-Oct-17 11:33N 55°06' E 014°41'0 0.0
2014-Oct-17 10:34N 55°06' E 014°41'0 0.0
2014-Oct-17 09:34N 55°06' E 014°41'0 0.0
2014-Oct-17 08:33N 55°06' E 014°41'0 0.0
2014-Oct-17 07:33N 55°06' E 014°41'0 0.0
2014-Oct-17 06:34N 55°06' E 014°41'0 0.0
2014-Oct-17 05:34N 55°06' E 014°41'0 0.0
2014-Oct-17 04:33N 55°06' E 014°41'0 0.0
2014-Oct-17 03:34N 55°06' E 014°41'0 0.0
2014-Oct-17 02:34N 55°06' E 014°41'0 0.0
2014-Oct-17 01:34N 55°06' E 014°41'0 0.0
2014-Oct-17 00:33N 55°06' E 014°41'0 0.0
2014-Oct-16 23:34N 55°06' E 014°41'0 0.0
2014-Oct-16 22:34N 55°06' E 014°41'0 0.0
2014-Oct-16 21:33N 55°06' E 014°41'0 0.0
2014-Oct-16 20:33N 55°06' E 014°41'0 0.0
2014-Oct-16 19:34N 55°06' E 014°41'0 0.0
2014-Oct-16 18:33N 55°06' E 014°41'0 0.0
2014-Oct-16 17:33N 55°06' E 014°41'0 0.0
2014-Oct-16 16:33N 55°06' E 014°41'0 0.0
2014-Oct-16 15:33N 55°06' E 014°41'0 0.0
2014-Oct-16 14:33N 55°06' E 014°41'0 0.0
2014-Oct-16 13:33N 55°06' E 014°41'0 0.0
2014-Oct-16 12:33N 55°06' E 014°41'0 0.0
2014-Oct-16 11:34N 55°06' E 014°41'0 0.0
2014-Oct-16 10:34N 55°06' E 014°41'0 0.0
2014-Oct-16 09:33N 55°06' E 014°41'0 0.0
2014-Oct-16 08:34N 55°06' E 014°41'0 0.0
2014-Oct-16 07:33N 55°06' E 014°41'0 0.0
2014-Oct-16 06:34N 55°06' E 014°41'0 0.0
2014-Oct-16 05:33N 55°06' E 014°41'0 0.0
2014-Oct-16 04:33N 55°06' E 014°41'0 0.0
2014-Oct-16 03:33N 55°06' E 014°41'0 0.0
2014-Oct-16 02:34N 55°06' E 014°41'0 0.0
2014-Oct-16 01:34N 55°06' E 014°41'0 0.0
2014-Oct-16 00:33N 55°06' E 014°41'0 0.0
2014-Oct-15 23:34N 55°06' E 014°41'0 0.0
2014-Oct-15 22:34N 55°06' E 014°41'0 0.0
2014-Oct-15 21:34N 55°06' E 014°41'0 0.0
2014-Oct-15 20:33N 55°06' E 014°41'0 0.0
2014-Oct-15 19:33N 55°06' E 014°41'0 0.0
2014-Oct-15 18:34N 55°06' E 014°41'0 0.0
2014-Oct-15 17:34N 55°06' E 014°41'0 0.0
2014-Oct-15 16:34N 55°06' E 014°41'0 0.0
2014-Oct-15 15:33N 55°06' E 014°41'0 0.0
2014-Oct-15 14:34N 55°06' E 014°41'0 0.0
2014-Oct-15 13:33N 55°06' E 014°41'0 0.0
2014-Oct-15 12:33N 55°06' E 014°41'0 0.0
2014-Oct-15 11:33N 55°06' E 014°41'0 0.0
2014-Oct-15 10:33N 55°06' E 014°41'0 0.0
2014-Oct-15 09:33N 55°06' E 014°41'0 0.0
2014-Oct-15 08:33N 55°06' E 014°41'0 0.0
2014-Oct-15 07:33N 55°06' E 014°41'0 0.0
2014-Oct-15 06:34N 55°06' E 014°41'0 0.0
2014-Oct-15 05:33N 55°06' E 014°41'0 0.0
2014-Oct-15 04:33N 55°06' E 014°41'0 0.0
2014-Oct-15 03:33N 55°06' E 014°41'0 0.0
2014-Oct-15 02:33N 55°06' E 014°41'0 0.0
2014-Oct-15 01:34N 55°06' E 014°41'  
Track history (hours):
 
Tides and Currents Weather Stations Pressure Air Temp Water Temp Dewpoint Dewpoint Depression Visibility Wind Speed Wind Dir Waves Ship Positions

Ahlsell

Last reported at 2014-Oct-25 01:33 UTC. Time now 2014-Oct-25 01:38 UTC.
Position N 55°06' E 014°42'.

Length 40 m; draft 4 m.

Type: Dredging. MMSI: 219000852.

Date/timePositionNaut miles runAvg speedWind from/ knotsBaromVisibWave heightAir tempDewpointWater temp
2014-Oct-25 01:33N 55°06' E 014°42'0 0.0
2014-Oct-25 00:33N 55°06' E 014°42'0 0.0
2014-Oct-24 23:34N 55°06' E 014°42'0 0.0
2014-Oct-24 22:34N 55°06' E 014°42'0 0.0
2014-Oct-24 21:33N 55°06' E 014°42'0 0.0
2014-Oct-24 20:33N 55°06' E 014°42'0 0.0
2014-Oct-24 19:33N 55°06' E 014°42'0 0.0
2014-Oct-24 18:33N 55°06' E 014°42'0 0.0
2014-Oct-24 17:33N 55°06' E 014°42'0 0.0
2014-Oct-24 16:33N 55°06' E 014°42'0 0.0
2014-Oct-24 15:33N 55°06' E 014°42'0 0.0
2014-Oct-24 14:33N 55°06' E 014°42'0 0.0
2014-Oct-24 13:33N 55°06' E 014°42'0 0.0
2014-Oct-24 12:33N 55°06' E 014°42'0 0.0
2014-Oct-24 11:34N 55°06' E 014°42'0 0.0
2014-Oct-24 10:33N 55°06' E 014°42'0 0.0
2014-Oct-24 09:33N 55°06' E 014°42'0 0.4
2014-Oct-24 08:34N 55°06' E 014°41'0 0.0
2014-Oct-24 07:34N 55°06' E 014°41'0 0.0
2014-Oct-24 06:34N 55°06' E 014°41'0 0.0
2014-Oct-24 05:34N 55°06' E 014°41'6 6.1
2014-Oct-24 04:33N 55°01' E 014°36'0 0.5
2014-Oct-24 03:33N 55°00' E 014°35'4 4.1
2014-Oct-24 02:33N 55°04' E 014°39'3 2.5
2014-Oct-24 01:34N 55°06' E 014°41'0 0.0
2014-Oct-24 00:33N 55°06' E 014°41'3 2.6
2014-Oct-23 23:34N 55°04' E 014°39'4 3.7
2014-Oct-23 22:33N 55°01' E 014°35'0 0.0
2014-Oct-23 21:34N 55°01' E 014°35'6 6.3
2014-Oct-23 20:33N 55°06' E 014°41'0 0.0
2014-Oct-23 19:34N 55°06' E 014°41'1 1.5
2014-Oct-23 18:33N 55°05' E 014°40'7 6.7
2014-Oct-23 17:34N 54°58' E 014°36'6 5.3
2014-Oct-23 16:28N 54°53' E 014°33'0 0.0
2014-Oct-23 15:30N 54°53' E 014°33'0 0.0
2014-Oct-23 14:33N 54°53' E 014°33'1 0.8
2014-Oct-23 13:33N 54°52' E 014°32'0 0.2
2014-Oct-23 12:28N 54°52' E 014°32'0 0.1
2014-Oct-23 11:32N 54°52' E 014°32'4 3.9
2014-Oct-23 10:34N 54°56' E 014°34'8 8.2
2014-Oct-23 09:34N 55°03' E 014°39'3 2.8
2014-Oct-23 08:33N 55°06' E 014°41'0 0.0
2014-Oct-23 07:34N 55°06' E 014°41'3 3.4
2014-Oct-23 06:34N 55°02' E 014°41'6 6.3
2014-Oct-23 05:33N 54°56' E 014°44'2 2.0
2014-Oct-23 04:30N 54°54' E 014°46'4 4.1
2014-Oct-23 03:33N 54°58' E 014°43'8 7.6
2014-Oct-23 02:34N 55°06' E 014°41'1 0.5
2014-Oct-23 01:33N 55°06' E 014°41'0 0.0
2014-Oct-23 00:34N 55°06' E 014°41'5 5.5
2014-Oct-22 23:34N 55°00' E 014°42'6 6.0
2014-Oct-22 22:34N 54°55' E 014°45'0 0.5
2014-Oct-22 21:33N 54°54' E 014°45'4 4.2
2014-Oct-22 20:33N 54°58' E 014°43'7 7.4
2014-Oct-22 19:34N 55°06' E 014°41'0 0.5
2014-Oct-22 18:34N 55°06' E 014°41'1 0.8
2014-Oct-22 17:34N 55°05' E 014°40'7 6.8
2014-Oct-22 16:34N 54°59' E 014°43'5 4.5
2014-Oct-22 15:33N 54°55' E 014°46'0 0.1
2014-Oct-22 14:32N 54°55' E 014°46'6 6.7
2014-Oct-22 13:34N 55°01' E 014°42'5 5.3
2014-Oct-22 12:33N 55°06' E 014°41'0 0.0
2014-Oct-22 11:33N 55°06' E 014°41'1 1.3
2014-Oct-22 10:33N 55°05' E 014°41'7 7.0
2014-Oct-22 09:34N 54°58' E 014°44'4 4.0
2014-Oct-22 08:33N 54°54' E 014°46'4 4.3
2014-Oct-22 07:34N 54°58' E 014°45'7 7.3
2014-Oct-22 06:34N 55°05' E 014°41'1 0.7
2014-Oct-22 05:33N 55°06' E 014°41'0 0.4
2014-Oct-22 04:33N 55°06' E 014°41'4 3.6
2014-Oct-22 03:33N 55°02' E 014°41'0 0.0
2014-Oct-22 02:34N 55°02' E 014°41'0 0.0
2014-Oct-22 01:34N 55°02' E 014°41'0 0.0
2014-Oct-22 00:33N 55°02' E 014°41'0 0.0
2014-Oct-21 23:34N 55°02' E 014°41'3 3.2
2014-Oct-21 22:33N 55°05' E 014°41'1 0.8
2014-Oct-21 21:33N 55°06' E 014°41'0 0.0
2014-Oct-21 20:33N 55°06' E 014°41'4 3.9
2014-Oct-21 19:34N 55°02' E 014°41'0 0.0
2014-Oct-21 18:33N 55°02' E 014°41'0 0.0
2014-Oct-21 17:34N 55°02' E 014°41'0 0.0
2014-Oct-21 16:34N 55°02' E 014°41'3 3.1
2014-Oct-21 15:33N 55°05' E 014°41'1 0.9
2014-Oct-21 14:33N 55°06' E 014°41'1 0.5
2014-Oct-21 13:34N 55°06' E 014°41'3 3.5
2014-Oct-21 12:33N 55°02' E 014°41'0 0.0
2014-Oct-21 11:33N 55°02' E 014°41'0 0.0
2014-Oct-21 10:33N 55°02' E 014°41'4 3.6
2014-Oct-21 09:33N 55°06' E 014°41'0 0.4
2014-Oct-21 08:33N 55°06' E 014°41'0 0.0
2014-Oct-21 07:33N 55°06' E 014°41'0 0.0
2014-Oct-21 06:33N 55°06' E 014°41'0 0.0
2014-Oct-21 05:33N 55°06' E 014°41'0 0.0
2014-Oct-21 04:34N 55°06' E 014°41'0 0.0
2014-Oct-21 03:33N 55°06' E 014°41'0 0.0
2014-Oct-21 02:34N 55°06' E 014°41'0 0.0
2014-Oct-21 01:34N 55°06' E 014°41'0 0.0
2014-Oct-21 00:34N 55°06' E 014°41'0 0.0
2014-Oct-20 23:33N 55°06' E 014°41'0 0.0
2014-Oct-20 22:33N 55°06' E 014°41'0 0.0
2014-Oct-20 21:33N 55°06' E 014°41'0 0.0
2014-Oct-20 20:33N 55°06' E 014°41'0 0.0
2014-Oct-20 19:33N 55°06' E 014°41'0 0.0
2014-Oct-20 18:33N 55°06' E 014°41'0 0.0
2014-Oct-20 17:33N 55°06' E 014°41'0 0.0
2014-Oct-20 16:34N 55°06' E 014°41'0 0.0
2014-Oct-20 15:33N 55°06' E 014°41'0 0.0
2014-Oct-20 14:34N 55°06' E 014°41'0 0.0
2014-Oct-20 13:33N 55°06' E 014°41'0 0.0
2014-Oct-20 12:33N 55°06' E 014°41'0 0.0
2014-Oct-20 11:33N 55°06' E 014°41'0 0.0
2014-Oct-20 10:34N 55°06' E 014°41'0 0.0
2014-Oct-20 09:34N 55°06' E 014°41'0 0.0
2014-Oct-20 08:33N 55°06' E 014°41'0 0.0
2014-Oct-20 07:33N 55°06' E 014°41'0 0.0
2014-Oct-20 06:34N 55°06' E 014°41'0 0.0
2014-Oct-20 05:34N 55°06' E 014°41'0 0.0
2014-Oct-20 04:33N 55°06' E 014°41'0 0.0
2014-Oct-20 03:34N 55°06' E 014°41'0 0.0
2014-Oct-20 02:34N 55°06' E 014°41'0 0.0
2014-Oct-20 01:34N 55°06' E 014°41'0 0.0
2014-Oct-20 00:33N 55°06' E 014°41'0 0.0
2014-Oct-19 23:33N 55°06' E 014°41'0 0.0
2014-Oct-19 22:33N 55°06' E 014°41'0 0.0
2014-Oct-19 21:34N 55°06' E 014°41'0 0.0
2014-Oct-19 20:34N 55°06' E 014°41'0 0.0
2014-Oct-19 19:33N 55°06' E 014°41'0 0.0
2014-Oct-19 18:34N 55°06' E 014°41'0 0.0
2014-Oct-19 17:33N 55°06' E 014°41'0 0.0
2014-Oct-19 16:34N 55°06' E 014°41'0 0.0
2014-Oct-19 15:34N 55°06' E 014°41'0 0.0
2014-Oct-19 14:34N 55°06' E 014°41'0 0.0
2014-Oct-19 13:33N 55°06' E 014°41'0 0.0
2014-Oct-19 12:33N 55°06' E 014°41'0 0.0
2014-Oct-19 11:33N 55°06' E 014°41'0 0.0
2014-Oct-19 10:33N 55°06' E 014°41'0 0.0
2014-Oct-19 09:34N 55°06' E 014°41'0 0.0
2014-Oct-19 08:33N 55°06' E 014°41'0 0.0
2014-Oct-19 07:34N 55°06' E 014°41'0 0.0
2014-Oct-19 06:33N 55°06' E 014°41'0 0.0
2014-Oct-19 05:34N 55°06' E 014°41'0 0.0
2014-Oct-19 04:33N 55°06' E 014°41'0 0.0
2014-Oct-19 03:34N 55°06' E 014°41'0 0.0
2014-Oct-19 02:33N 55°06' E 014°41'0 0.0
2014-Oct-19 01:34N 55°06' E 014°41'0 0.0
2014-Oct-19 00:33N 55°06' E 014°41'0 0.0
2014-Oct-18 23:34N 55°06' E 014°41'0 0.0
2014-Oct-18 22:34N 55°06' E 014°41'0 0.0
2014-Oct-18 21:34N 55°06' E 014°41'0 0.0
2014-Oct-18 20:34N 55°06' E 014°41'0 0.0
2014-Oct-18 19:33N 55°06' E 014°41'0 0.0
2014-Oct-18 18:34N 55°06' E 014°41'0 0.0
2014-Oct-18 17:33N 55°06' E 014°41'0 0.0
2014-Oct-18 16:33N 55°06' E 014°41'0 0.0
2014-Oct-18 15:34N 55°06' E 014°41'0 0.0
2014-Oct-18 14:33N 55°06' E 014°41'0 0.0
2014-Oct-18 13:33N 55°06' E 014°41'0 0.0
2014-Oct-18 12:33N 55°06' E 014°41'0 0.0
2014-Oct-18 11:33N 55°06' E 014°41'0 0.0
2014-Oct-18 10:33N 55°06' E 014°41'0 0.0
2014-Oct-18 09:33N 55°06' E 014°41'0 0.0
2014-Oct-18 08:33N 55°06' E 014°41'0 0.0
2014-Oct-18 07:34N 55°06' E 014°41'0 0.0
2014-Oct-18 06:33N 55°06' E 014°41'0 0.0
2014-Oct-18 05:33N 55°06' E 014°41'0 0.0
2014-Oct-18 04:33N 55°06' E 014°41'0 0.0
2014-Oct-18 03:33N 55°06' E 014°41'0 0.0
2014-Oct-18 02:34N 55°06' E 014°41'0 0.0
2014-Oct-18 01:33N 55°06' E 014°41'0 0.0
2014-Oct-18 00:34N 55°06' E 014°41'0 0.0
2014-Oct-17 23:34N 55°06' E 014°41'0 0.0
2014-Oct-17 22:33N 55°06' E 014°41'0 0.0
2014-Oct-17 21:33N 55°06' E 014°41'0 0.0
2014-Oct-17 20:33N 55°06' E 014°41'0 0.0
2014-Oct-17 19:33N 55°06' E 014°41'0 0.0
2014-Oct-17 18:34N 55°06' E 014°41'0 0.0
2014-Oct-17 17:33N 55°06' E 014°41'0 0.0
2014-Oct-17 16:34N 55°06' E 014°41'0 0.0
2014-Oct-17 15:33N 55°06' E 014°41'0 0.0
2014-Oct-17 14:34N 55°06' E 014°41'0 0.0
2014-Oct-17 13:33N 55°06' E 014°41'0 0.0
2014-Oct-17 12:33N 55°06' E 014°41'0 0.0
2014-Oct-17 11:33N 55°06' E 014°41'0 0.0
2014-Oct-17 10:34N 55°06' E 014°41'0 0.0
2014-Oct-17 09:34N 55°06' E 014°41'0 0.0
2014-Oct-17 08:33N 55°06' E 014°41'0 0.0
2014-Oct-17 07:33N 55°06' E 014°41'0 0.0
2014-Oct-17 06:34N 55°06' E 014°41'0 0.0
2014-Oct-17 05:34N 55°06' E 014°41'0 0.0
2014-Oct-17 04:33N 55°06' E 014°41'0 0.0
2014-Oct-17 03:34N 55°06' E 014°41'0 0.0
2014-Oct-17 02:34N 55°06' E 014°41'0 0.0
2014-Oct-17 01:34N 55°06' E 014°41'0 0.0
2014-Oct-17 00:33N 55°06' E 014°41'0 0.0
2014-Oct-16 23:34N 55°06' E 014°41'0 0.0
2014-Oct-16 22:34N 55°06' E 014°41'0 0.0
2014-Oct-16 21:33N 55°06' E 014°41'0 0.0
2014-Oct-16 20:33N 55°06' E 014°41'0 0.0
2014-Oct-16 19:34N 55°06' E 014°41'0 0.0
2014-Oct-16 18:33N 55°06' E 014°41'0 0.0
2014-Oct-16 17:33N 55°06' E 014°41'0 0.0
2014-Oct-16 16:33N 55°06' E 014°41'0 0.0
2014-Oct-16 15:33N 55°06' E 014°41'0 0.0
2014-Oct-16 14:33N 55°06' E 014°41'0 0.0
2014-Oct-16 13:33N 55°06' E 014°41'0 0.0
2014-Oct-16 12:33N 55°06' E 014°41'0 0.0
2014-Oct-16 11:34N 55°06' E 014°41'0 0.0
2014-Oct-16 10:34N 55°06' E 014°41'0 0.0
2014-Oct-16 09:33N 55°06' E 014°41'0 0.0
2014-Oct-16 08:34N 55°06' E 014°41'0 0.0
2014-Oct-16 07:33N 55°06' E 014°41'0 0.0
2014-Oct-16 06:34N 55°06' E 014°41'0 0.0
2014-Oct-16 05:33N 55°06' E 014°41'0 0.0
2014-Oct-16 04:33N 55°06' E 014°41'0 0.0
2014-Oct-16 03:33N 55°06' E 014°41'0 0.0
2014-Oct-16 02:34N 55°06' E 014°41'0 0.0
2014-Oct-16 01:34N 55°06' E 014°41'0 0.0
2014-Oct-16 00:33N 55°06' E 014°41'0 0.0
2014-Oct-15 23:34N 55°06' E 014°41'0 0.0
2014-Oct-15 22:34N 55°06' E 014°41'0 0.0
2014-Oct-15 21:34N 55°06' E 014°41'0 0.0
2014-Oct-15 20:33N 55°06' E 014°41'0 0.0
2014-Oct-15 19:33N 55°06' E 014°41'0 0.0
2014-Oct-15 18:34N 55°06' E 014°41'0 0.0
2014-Oct-15 17:34N 55°06' E 014°41'0 0.0
2014-Oct-15 16:34N 55°06' E 014°41'0 0.0
2014-Oct-15 15:33N 55°06' E 014°41'0 0.0
2014-Oct-15 14:34N 55°06' E 014°41'0 0.0
2014-Oct-15 13:33N 55°06' E 014°41'0 0.0
2014-Oct-15 12:33N 55°06' E 014°41'0 0.0
2014-Oct-15 11:33N 55°06' E 014°41'0 0.0
2014-Oct-15 10:33N 55°06' E 014°41'0 0.0
2014-Oct-15 09:33N 55°06' E 014°41'0 0.0
2014-Oct-15 08:33N 55°06' E 014°41'0 0.0
2014-Oct-15 07:33N 55°06' E 014°41'0 0.0
2014-Oct-15 06:34N 55°06' E 014°41'0 0.0
2014-Oct-15 05:33N 55°06' E 014°41'0 0.0
2014-Oct-15 04:33N 55°06' E 014°41'0 0.0
2014-Oct-15 03:33N 55°06' E 014°41'0 0.0
2014-Oct-15 02:33N 55°06' E 014°41'0 0.0
2014-Oct-15 01:34N 55°06' E 014°41'  

Dump ship's entire track history